Time;durP1;ratioP1;P1;durP2;ratioP2;P2;SDS_P1;SDS_P2;PMS_P1;PMS_P2;Temp;Humidity;BMP_temperature;BMP_pressure;BME280_temperature;BME280_humidity;BME280_pressure;Samples;Min_cycle;Max_cycle;Signal;HPM_P1;HPM_P2
2023/03/28 00:01:23;;;;;;;49.20;21.50;;;;;;;-2.60;67.74;98262.20;435674;1255;110150;-40
2023/03/28 00:11:30;;;;;;;36.20;15.80;;;;;;;-2.56;67.84;98261.10;435378;1251;108006;-40
2023/03/28 00:21:40;;;;;;;35.90;16.30;;;;;;;-2.61;67.84;98260.84;435283;1257;99205;-41
2023/03/28 00:31:45;;;;;;;;;;;;;;;-2.70;67.96;98262.48;435445;1256;112424;-40
2023/03/28 00:41:54;;;;;;;25.50;11.80;;;;;;;-2.81;68.11;98262.18;435282;1254;108254;-44
2023/03/28 00:52:04;;;;;;;24.60;12.90;;;;;;;-2.85;68.01;98260.20;435282;1257;97908;-42
2023/03/28 01:02:11;;;;;;;27.50;11.50;;;;;;;-2.95;68.01;98253.16;435510;1251;107029;-40
2023/03/28 01:12:17;;;;;;;19.00;9.90;;;;;;;-3.04;68.20;98254.35;436008;1255;99970;-40
2023/03/28 01:22:40;;;;;;;20.60;9.80;;;;;;;-2.92;68.22;98247.45;435127;1257;110900;-39
2023/03/28 01:33:24;;;;;;;19.30;7.50;;;;;;;-2.45;68.80;98242.01;435064;1266;108188;-41
2023/03/28 01:43:31;;;;;;;13.10;6.70;;;;;;;-1.95;69.30;98232.52;435099;1257;99234;-41
2023/03/28 01:53:38;;;;;;;18.00;8.30;;;;;;;-1.62;69.74;98218.34;435300;1251;107011;-40
2023/03/28 02:03:43;;;;;;;15.50;8.00;;;;;;;-1.47;70.13;98212.60;435250;1251;98881;-40
2023/03/28 02:13:56;;;;;;;14.90;7.00;;;;;;;-1.38;70.27;98207.10;435432;1251;111667;-40
2023/03/28 02:24:04;;;;;;;17.50;9.40;;;;;;;-1.47;70.51;98194.01;435268;1257;108022;-40
2023/03/28 02:34:10;;;;;;;13.00;6.20;;;;;;;-1.66;70.63;98197.96;435304;1251;98807;-41
2023/03/28 02:44:28;;;;;;;12.70;6.80;;;;;;;-1.62;70.72;98189.16;435207;1251;112269;-48
2023/03/28 02:54:37;;;;;;;11.40;6.40;;;;;;;-1.67;71.29;98186.68;435087;1251;107566;-39
2023/03/28 03:04:45;;;;;;;8.60;5.60;;;;;;;-1.64;71.77;98188.15;435281;1257;99285;-41
2023/03/28 03:14:52;;;;;;;8.30;4.90;;;;;;;-1.50;72.48;98180.73;434300;1257;107728;-41
2023/03/28 03:35:07;;;;;;;10.50;6.40;;;;;;;-1.32;73.70;98175.46;434457;1257;111144;-40
2023/03/28 03:45:15;;;;;;;8.60;5.40;;;;;;;-1.17;74.07;98185.52;434153;1257;326833;-40
2023/03/28 03:55:22;;;;;;;7.40;4.70;;;;;;;-0.97;74.37;98187.21;434238;1253;99880;-40
2023/03/28 04:05:29;;;;;;;5.50;5.00;;;;;;;-0.83;75.17;98185.25;434372;1257;111397;-41
2023/03/28 04:15:37;;;;;;;10.90;5.50;;;;;;;-0.71;75.43;98193.39;435220;1273;108304;-40
2023/03/28 04:25:44;;;;;;;12.30;7.70;;;;;;;-0.69;76.10;98191.56;435256;1256;97983;-39
2023/03/28 04:45:59;;;;;;;11.10;7.20;;;;;;;-0.66;76.28;98181.79;435402;1251;107734;-41
2023/03/28 04:56:04;;;;;;;12.40;7.80;;;;;;;-0.64;75.96;98180.84;435254;1251;99244;-42
2023/03/28 05:06:09;;;;;;;10.70;6.30;;;;;;;-0.63;76.08;98191.83;435355;1257;111211;-41
2023/03/28 05:16:16;;;;;;;9.00;5.20;;;;;;;-0.50;76.00;98196.27;435300;1251;107535;-42
2023/03/28 05:26:24;;;;;;;12.00;7.10;;;;;;;-0.34;76.10;98183.42;435276;1256;99295;-40
2023/03/28 05:36:31;;;;;;;12.30;6.80;;;;;;;-0.19;76.44;98188.92;435218;1256;109440;-40
2023/03/28 05:46:39;;;;;;;14.30;6.90;;;;;;;-0.23;76.59;98195.90;435269;1251;99249;-41
2023/03/28 05:56:47;;;;;;;7.00;5.10;;;;;;;0.01;76.93;98199.85;435328;1251;110578;-41
2023/03/28 06:06:54;;;;;;;16.90;6.20;;;;;;;0.23;77.39;98211.95;435169;1251;109306;-40
2023/03/28 06:17:02;;;;;;;6.90;3.80;;;;;;;0.04;78.47;98232.69;435216;1251;99237;-41
2023/03/28 06:27:10;;;;;;;6.60;3.40;;;;;;;0.41;78.62;98250.52;435167;1256;108435;-40
2023/03/28 06:37:17;;;;;;;3.60;2.10;;;;;;;0.80;77.70;98262.46;435331;1256;97973;-41
2023/03/28 06:47:24;;;;;;;7.60;1.90;;;;;;;1.66;75.14;98271.50;435236;1251;111917;-41
2023/03/28 06:57:32;;;;;;;7.30;3.80;;;;;;;1.03;73.72;98278.03;435264;1252;106445;-40
2023/03/28 07:07:40;;;;;;;3.30;2.30;;;;;;;0.73;73.80;98284.95;435207;1256;97977;-40
2023/03/28 07:17:47;;;;;;;2.70;2.50;;;;;;;1.05;73.35;98306.43;435083;1251;108444;-40
2023/03/28 07:27:53;;;;;;;6.20;3.70;;;;;;;1.52;72.44;98315.30;435225;1256;98001;-41
2023/03/28 07:38:00;;;;;;;7.40;2.00;;;;;;;0.82;73.32;98358.02;435260;1254;98844;-39
2023/03/28 07:48:05;;;;;;;5.00;2.60;;;;;;;0.18;75.72;98373.02;435325;1256;107863;-41
2023/03/28 07:58:13;;;;;;;3.30;2.90;;;;;;;0.43;76.07;98384.20;435320;1256;99253;-41
2023/03/28 08:08:22;;;;;;;3.40;2.00;;;;;;;0.70;74.40;98404.83;435222;1256;110885;-41
2023/03/28 08:18:29;;;;;;;3.10;2.70;;;;;;;0.78;73.52;98424.07;435183;1251;107836;-40
2023/03/28 08:28:37;;;;;;;6.40;3.40;;;;;;;1.31;72.86;98428.20;435350;1256;97940;-40
2023/03/28 08:38:46;;;;;;;3.50;2.80;;;;;;;1.59;69.71;98439.39;435263;1252;111149;-40
2023/03/28 08:48:55;;;;;;;3.50;2.90;;;;;;;1.98;67.99;98455.09;435303;1255;108564;-40
2023/03/28 08:59:03;;;;;;;4.10;2.60;;;;;;;2.41;65.29;98463.90;435462;1251;99003;-41
2023/03/28 09:09:12;;;;;;;4.80;2.10;;;;;;;2.45;63.15;98477.12;435284;1256;111287;-41
2023/03/28 09:19:29;;;;;;;7.00;3.70;;;;;;;2.06;62.30;98498.56;435316;1253;108285;-39
2023/03/28 09:29:55;;;;;;;5.40;2.20;;;;;;;1.94;62.71;98513.20;435318;1252;97965;-41
2023/03/28 09:40:00;;;;;;;3.40;2.20;;;;;;;2.37;60.86;98522.79;435459;1251;111191;-40
2023/03/28 09:50:11;;;;;;;8.30;4.40;;;;;;;2.23;60.03;98540.69;435262;1256;107176;-42
2023/03/28 10:10:28;;;;;;;5.30;1.70;;;;;;;2.49;57.80;98560.37;435420;1256;107954;-40
2023/03/28 10:30:41;;;;;;;2.90;1.80;;;;;;;2.78;54.52;98570.02;435461;1251;112287;-40
2023/03/28 10:40:53;;;;;;;3.20;1.60;;;;;;;3.01;53.83;98573.81;435429;1256;108169;-41
2023/03/28 10:50:58;;;;;;;8.00;2.60;;;;;;;3.69;53.26;98571.73;435386;1251;99212;-41
2023/03/28 11:01:05;;;;;;;5.40;2.20;;;;;;;4.00;53.83;98577.52;435385;1256;111965;-40
2023/03/28 11:11:14;;;;;;;3.60;2.40;;;;;;;4.33;52.29;98574.85;435354;1256;107981;-39
2023/03/28 11:21:25;;;;;;;9.60;2.30;;;;;;;4.73;53.09;98582.84;435401;1255;98012;-39
2023/03/28 11:31:34;;;;;;;5.00;3.20;;;;;;;4.53;52.52;98592.36;435297;1255;110245;-40
2023/03/28 11:41:45;;;;;;;10.90;8.10;;;;;;;3.36;56.88;98617.16;435381;1256;106782;-41
2023/03/28 11:51:51;;;;;;;9.20;4.70;;;;;;;2.15;61.79;98630.59;435237;1256;116939;-40
2023/03/28 12:01:57;;;;;;;4.70;2.70;;;;;;;3.03;64.00;98616.58;435216;1256;106938;-40
2023/03/28 12:12:06;;;;;;;3.50;2.70;;;;;;;2.94;63.91;98651.40;435240;1256;99268;-39
2023/03/28 12:22:18;;;;;;;6.20;3.30;;;;;;;2.41;65.45;98669.05;435299;1256;111434;-40
2023/03/28 12:32:37;;;;;;;3.50;2.70;;;;;;;1.83;66.90;98685.69;435273;1253;108900;-39
2023/03/28 12:42:47;;;;;;;5.70;3.10;;;;;;;1.61;68.26;98705.38;435315;1251;99215;-39
2023/03/28 12:52:54;;;;;;;6.10;2.40;;;;;;;1.92;67.10;98704.69;435288;1256;110950;-40
2023/03/28 13:03:06;;;;;;;6.60;2.60;;;;;;;1.86;63.92;98715.92;435271;1253;109318;-40
2023/03/28 13:13:19;;;;;;;5.10;2.70;;;;;;;1.84;62.27;98712.80;435404;1254;98054;-40
2023/03/28 13:23:28;;;;;;;6.00;2.60;;;;;;;2.03;60.91;98711.45;435196;1256;111500;-40
2023/03/28 13:33:38;;;;;;;4.00;2.70;;;;;;;1.92;59.42;98715.35;435293;1256;108096;-40
2023/03/28 13:43:50;;;;;;;3.50;2.20;;;;;;;2.39;58.47;98708.69;435292;1256;97984;-41
2023/03/28 13:53:59;;;;;;;5.60;2.80;;;;;;;2.53;56.74;98719.60;435226;1256;110322;-40
2023/03/28 14:04:10;;;;;;;4.00;2.70;;;;;;;2.25;55.08;98732.45;435205;1256;109461;-41
2023/03/28 14:14:25;;;;;;;6.40;3.00;;;;;;;2.09;56.15;98753.71;435326;1256;98837;-40
2023/03/28 14:24:33;;;;;;;5.80;3.50;;;;;;;2.08;56.39;98753.82;435308;1256;112635;-40
2023/03/28 14:34:43;;;;;;;11.70;3.90;;;;;;;1.79;57.12;98760.75;435442;1256;107751;-40
2023/03/28 14:44:54;;;;;;;25.20;10.60;;;;;;;1.39;58.29;98784.58;435221;1256;98805;-42
2023/03/28 14:55:03;;;;;;;9.90;5.50;;;;;;;1.08;61.08;98786.92;435196;1256;110930;-40
2023/03/28 15:05:15;;;;;;;25.10;10.90;;;;;;;1.27;62.02;98787.08;435214;1253;108810;-40
2023/03/28 15:15:27;;;;;;;10.50;4.80;;;;;;;1.03;63.54;98813.17;435261;1256;99185;-41
2023/03/28 15:35:49;;;;;;;;;;;;;;;0.50;67.48;98829.95;423348;1292;635140;-41
2023/03/28 15:45:56;;;;;;;13.30;7.80;;;;;;;0.44;68.96;98841.11;433497;1257;509188;-41
2023/03/28 15:56:05;;;;;;;8.80;4.20;;;;;;;0.23;68.47;98847.66;434023;1260;107198;-41
2023/03/28 16:06:21;;;;;;;9.50;5.10;;;;;;;0.19;68.49;98852.36;434084;1260;107672;-41
2023/03/28 16:16:40;;;;;;;12.30;5.60;;;;;;;0.19;67.61;98870.78;433985;1261;109356;-40
2023/03/28 16:26:48;;;;;;;12.90;6.70;;;;;;;0.01;66.09;98901.38;434133;1260;95530;-40
2023/03/28 16:36:56;;;;;;;14.70;6.10;;;;;;;-0.11;65.46;98917.20;434123;1261;95703;-44
2023/03/28 16:47:04;;;;;;;15.70;8.00;;;;;;;-0.22;65.53;98935.98;433998;1257;106577;-41
2023/03/28 16:57:11;;;;;;;8.00;3.90;;;;;;;-0.31;65.93;98967.66;435413;1254;107254;-41
2023/03/28 17:07:19;;;;;;;9.30;4.10;;;;;;;-0.66;67.18;98978.77;435482;1253;107326;-40
2023/03/28 17:17:27;;;;;;;11.10;5.60;;;;;;;-0.77;66.75;98988.33;435431;1253;95635;-41
2023/03/28 17:27:35;;;;;;;11.70;5.60;;;;;;;-0.78;66.31;99001.39;435576;1254;107789;-41
2023/03/28 17:37:43;;;;;;;13.20;6.00;;;;;;;-0.72;65.91;99012.56;435529;1255;108603;-41
2023/03/28 17:47:50;;;;;;;24.50;9.90;;;;;;;-0.69;65.37;99019.00;435539;1253;108499;-40
2023/03/28 17:57:57;;;;;;;13.80;7.70;;;;;;;-0.78;64.96;99029.46;435383;1254;96151;-40
2023/03/28 18:08:05;;;;;;;14.60;7.10;;;;;;;-0.91;64.72;99048.69;435363;1254;96110;-41
2023/03/28 18:18:12;;;;;;;14.50;7.60;;;;;;;-0.97;64.87;99058.92;435641;1251;107995;-41
2023/03/28 18:38:27;;;;;;;23.60;10.90;;;;;;;-0.96;64.65;99069.27;435348;1257;95255;-40
2023/03/28 18:48:35;;;;;;;36.40;13.80;;;;;;;-0.99;64.45;99073.77;435423;1250;95659;-41
2023/03/28 19:08:50;;;;;;;21.00;8.60;;;;;;;-0.97;64.18;99081.25;435377;1254;109023;-41
2023/03/28 19:29:04;;;;;;;13.50;6.00;;;;;;;-0.95;63.25;99083.84;435558;1256;95871;-42
2023/03/28 19:39:10;;;;;;;16.70;6.90;;;;;;;-0.93;62.54;99084.56;435482;1257;108591;-39
2023/03/28 19:49:18;;;;;;;16.70;8.20;;;;;;;-0.95;62.25;99088.66;435324;1257;107836;-41
2023/03/28 19:59:25;;;;;;;11.40;6.00;;;;;;;-1.08;61.86;99098.95;435415;1257;95680;-40
2023/03/28 20:09:32;;;;;;;16.10;7.10;;;;;;;-1.22;61.45;99100.23;435419;1255;96578;-40
2023/03/28 20:19:41;;;;;;;14.30;6.90;;;;;;;-1.33;61.43;99094.91;435441;1254;108920;-40
2023/03/28 20:29:49;;;;;;;20.30;8.10;;;;;;;-1.46;61.34;99101.14;435626;1254;108802;-41
2023/03/28 20:39:56;;;;;;;22.20;10.40;;;;;;;-1.55;61.38;99114.58;435750;1251;96145;-41
2023/03/28 20:50:04;;;;;;;16.90;9.30;;;;;;;-1.65;61.33;99115.48;435789;1253;96122;-41
2023/03/28 21:00:16;;;;;;;17.60;6.60;;;;;;;-1.76;61.32;99125.13;435467;1254;108717;-41
2023/03/28 21:10:23;;;;;;;16.50;7.00;;;;;;;-1.85;61.54;99137.90;435487;1253;108264;-42
2023/03/28 21:20:30;;;;;;;17.30;7.40;;;;;;;-1.93;61.42;99140.64;436229;1251;107525;-41
2023/03/28 21:30:39;;;;;;;13.10;5.40;;;;;;;-2.02;61.43;99151.27;436947;1253;95791;-41
2023/03/28 21:40:46;;;;;;;13.70;5.80;;;;;;;-2.08;61.35;99155.03;436248;1257;108558;-42
2023/03/28 21:50:53;;;;;;;12.80;6.30;;;;;;;-2.16;61.53;99160.31;435613;1250;107339;-40
2023/03/28 22:01:01;;;;;;;20.60;7.60;;;;;;;-2.26;61.55;99166.91;435702;1253;95925;-41
2023/03/28 22:11:12;;;;;;;14.30;6.70;;;;;;;-2.35;61.56;99169.33;436724;1254;95219;-40
2023/03/28 22:21:20;;;;;;;16.10;6.80;;;;;;;-2.46;61.75;99176.07;437149;1253;109101;-41
2023/03/28 22:31:27;;;;;;;17.50;7.10;;;;;;;-2.55;61.73;99179.52;436661;1250;107325;-41
2023/03/28 22:41:35;;;;;;;16.70;8.10;;;;;;;-2.67;61.84;99179.14;435554;1255;95633;-41
2023/03/28 23:01:50;;;;;;;17.60;9.20;;;;;;;-2.94;62.06;99186.09;435353;1255;109251;-40
2023/03/28 23:11:56;;;;;;;18.50;9.50;;;;;;;-3.02;62.06;99198.91;435586;1257;106844;-40
2023/03/28 23:22:03;;;;;;;17.80;8.60;;;;;;;-3.12;62.03;99203.38;435468;1251;97144;-42
2023/03/28 23:32:10;;;;;;;21.10;8.50;;;;;;;-3.22;62.11;99202.88;435299;1257;95470;-39
2023/03/28 23:42:17;;;;;;;22.00;8.60;;;;;;;-3.33;62.27;99204.11;435237;1256;108205;-40
2023/03/28 23:52:24;;;;;;;23.00;10.70;;;;;;;-3.43;62.36;99203.34;435564;1255;107117;-41
